createdAt,value
2023-06-01T00:00:26.458Z,19.53
2023-06-01T00:01:26.442Z,19.23
2023-06-01T00:02:26.494Z,19.75
2023-06-01T00:03:26.684Z,18.79
2023-06-01T00:04:26.443Z,18.62
2023-06-01T00:05:26.422Z,18.34
2023-06-01T00:06:26.410Z,18.31
2023-06-01T00:07:26.408Z,17.65
2023-06-01T00:08:26.395Z,18.07
2023-06-01T00:09:26.392Z,17.48
2023-06-01T00:10:26.383Z,18.28
2023-06-01T00:11:26.411Z,17.95
2023-06-01T00:12:26.441Z,18.02
2023-06-01T00:13:26.489Z,17.92
2023-06-01T00:14:26.536Z,17.05
2023-06-01T00:15:26.593Z,16.99
2023-06-01T00:16:26.669Z,17.82
2023-06-01T00:17:26.716Z,17.16
2023-06-01T00:18:26.780Z,17.68
2023-06-01T00:19:26.815Z,17.74
2023-06-01T00:20:26.870Z,16.57
2023-06-01T00:21:26.986Z,17.90
2023-06-01T00:22:26.971Z,17.36
2023-06-01T00:23:27.051Z,17.51
2023-06-01T00:24:27.117Z,17.19
2023-06-01T00:25:27.129Z,17.45
2023-06-01T00:26:27.190Z,18.07
2023-06-01T00:27:27.235Z,17.71
2023-06-01T00:28:27.303Z,17.73
2023-06-01T00:29:27.337Z,17.72
2023-06-01T00:30:27.377Z,18.27
2023-06-01T00:31:27.498Z,17.32
2023-06-01T00:32:27.505Z,16.53
2023-06-01T00:33:27.554Z,17.10
2023-06-01T00:34:27.605Z,18.63
2023-06-01T00:35:27.646Z,17.05
2023-06-01T00:36:27.700Z,17.09
2023-06-01T00:37:27.751Z,17.67
2023-06-01T00:38:27.815Z,17.07
2023-06-01T00:39:27.857Z,17.52
2023-06-01T00:40:27.907Z,16.49
2023-06-01T00:41:27.954Z,16.40
2023-06-01T00:42:28.004Z,17.27
2023-06-01T00:43:28.071Z,17.43
2023-06-01T00:44:28.118Z,17.21
2023-06-01T00:45:28.174Z,18.41
2023-06-01T00:46:28.261Z,16.84
2023-06-01T00:47:28.323Z,17.87
2023-06-01T00:48:28.328Z,16.52
2023-06-01T00:49:28.376Z,17.83
2023-06-01T00:50:28.423Z,17.84
2023-06-01T00:51:28.483Z,16.11
2023-06-01T00:52:28.553Z,17.94
2023-06-01T00:53:28.604Z,17.08
2023-06-01T00:54:28.662Z,17.77
2023-06-01T00:55:28.720Z,17.80
2023-06-01T00:56:28.800Z,17.06
2023-06-01T00:57:28.836Z,16.68
2023-06-01T00:58:28.883Z,17.21
2023-06-01T00:59:28.933Z,16.87
2023-06-01T01:00:28.990Z,18.04
2023-06-01T01:01:29.064Z,17.05
2023-06-01T01:02:29.120Z,17.38
2023-06-01T01:03:29.154Z,17.52
2023-06-01T01:04:29.254Z,17.62
2023-06-01T01:05:29.298Z,16.16
2023-06-01T01:06:29.299Z,16.89
2023-06-01T01:07:29.353Z,17.61
2023-06-01T01:08:29.407Z,16.34
2023-06-01T01:09:29.463Z,17.56
2023-06-01T01:10:29.525Z,16.56
2023-06-01T01:11:29.570Z,17.17
2023-06-01T01:12:29.612Z,16.57
2023-06-01T01:13:29.665Z,15.98
2023-06-01T01:14:29.711Z,15.79
2023-06-01T01:15:29.771Z,16.82
2023-06-01T01:16:29.909Z,17.10
2023-06-01T01:17:29.900Z,17.01
2023-06-01T01:18:29.944Z,17.76
2023-06-01T01:19:29.983Z,16.53
2023-06-01T01:20:30.065Z,16.01
2023-06-01T01:21:30.142Z,17.11
2023-06-01T01:22:30.168Z,16.16
2023-06-01T01:23:30.202Z,16.62
2023-06-01T01:24:30.243Z,17.26
2023-06-01T01:25:30.387Z,17.11
2023-06-01T01:26:30.348Z,16.92
2023-06-01T01:27:30.399Z,16.18
2023-06-01T01:28:30.461Z,16.77
2023-06-01T01:29:30.516Z,16.49
2023-06-01T01:30:30.569Z,16.47
2023-06-01T01:31:30.687Z,16.95
2023-06-01T01:32:30.701Z,16.19
2023-06-01T01:33:30.740Z,17.44
2023-06-01T01:34:30.791Z,16.38
2023-06-01T01:35:30.839Z,16.03
2023-06-01T01:36:30.897Z,16.00
2023-06-01T01:37:30.956Z,16.39
2023-06-01T01:38:31.024Z,16.83
2023-06-01T01:39:31.084Z,16.79
2023-06-01T01:40:31.132Z,16.30
2023-06-01T01:41:31.190Z,16.06
2023-06-01T01:42:31.258Z,16.50
2023-06-01T01:43:31.314Z,16.87
2023-06-01T01:44:31.372Z,17.37
2023-06-01T01:45:31.424Z,16.87
2023-06-01T01:46:31.577Z,15.92
2023-06-01T01:47:31.717Z,16.18
2023-06-01T01:48:31.630Z,16.34
2023-06-01T01:49:31.670Z,16.04
2023-06-01T01:50:31.711Z,17.09
2023-06-01T01:51:31.789Z,16.02
2023-06-01T01:52:31.832Z,16.02
2023-06-01T01:53:31.897Z,16.32
2023-06-01T01:54:31.951Z,16.31
2023-06-01T01:55:32.011Z,16.87
2023-06-01T01:56:32.069Z,17.67
2023-06-01T01:57:32.131Z,16.66
2023-06-01T01:58:32.191Z,15.54
2023-06-01T01:59:32.242Z,16.14
2023-06-01T02:00:32.375Z,15.68
2023-06-01T02:01:33.435Z,16.89
2023-06-01T02:02:32.455Z,15.68
2023-06-01T02:03:32.469Z,15.82
2023-06-01T02:04:32.325Z,16.04
2023-06-01T02:05:32.321Z,16.11
2023-06-01T02:06:32.308Z,16.28
2023-06-01T02:07:32.307Z,16.01
2023-06-01T02:08:32.302Z,16.12
2023-06-01T02:09:32.292Z,16.18
2023-06-01T02:10:32.282Z,15.46
2023-06-01T02:11:32.276Z,16.49
2023-06-01T02:12:32.265Z,15.75
2023-06-01T02:13:32.291Z,16.00
2023-06-01T02:14:32.252Z,15.21
2023-06-01T02:15:32.248Z,16.87
2023-06-01T02:16:32.280Z,15.40
2023-06-01T02:17:32.291Z,17.48
2023-06-01T02:18:32.229Z,15.47
2023-06-01T02:19:32.217Z,15.84
2023-06-01T02:20:32.214Z,16.44
2023-06-01T02:21:32.323Z,16.67
2023-06-01T02:22:32.198Z,15.77
2023-06-01T02:23:32.732Z,16.02
2023-06-01T02:24:32.319Z,14.90
2023-06-01T02:25:32.385Z,16.74
2023-06-01T02:26:32.468Z,15.83
2023-06-01T02:27:32.511Z,15.58
2023-06-01T02:28:32.571Z,16.04
2023-06-01T02:29:32.637Z,17.77
2023-06-01T02:30:32.675Z,15.68
2023-06-01T02:31:32.756Z,16.44
2023-06-01T02:32:32.802Z,15.01
2023-06-01T02:33:32.863Z,16.21
2023-06-01T02:34:32.948Z,17.27
2023-06-01T02:35:32.993Z,14.64
2023-06-01T02:36:33.149Z,15.39
2023-06-01T02:37:33.114Z,15.86
2023-06-01T02:38:33.196Z,16.42
2023-06-01T02:39:33.225Z,16.41
2023-06-01T02:40:33.291Z,15.98
2023-06-01T02:41:33.360Z,16.06
2023-06-01T02:42:33.427Z,14.94
2023-06-01T02:43:33.513Z,16.05
2023-06-01T02:44:33.549Z,15.59
2023-06-01T02:45:33.854Z,15.27
2023-06-01T02:46:33.786Z,15.54
2023-06-01T02:47:33.753Z,16.85
2023-06-01T02:48:33.802Z,15.41
2023-06-01T02:49:33.853Z,15.58
2023-06-01T02:50:33.914Z,14.84
2023-06-01T02:51:33.986Z,15.71
2023-06-01T02:52:34.037Z,16.12
2023-06-01T02:53:34.106Z,15.23
2023-06-01T02:54:34.182Z,15.57
2023-06-01T02:55:34.228Z,17.01
2023-06-01T02:56:34.280Z,14.99
2023-06-01T02:57:34.349Z,16.46
2023-06-01T02:58:34.413Z,15.72
2023-06-01T02:59:34.483Z,15.26
2023-06-01T03:00:34.542Z,16.05
2023-06-01T03:01:34.685Z,14.81
2023-06-01T03:02:34.698Z,15.15
2023-06-01T03:03:34.762Z,15.83
2023-06-01T03:04:34.799Z,15.57
2023-06-01T03:05:34.862Z,15.26
2023-06-01T03:06:34.942Z,15.52
2023-06-01T03:07:34.982Z,16.26
2023-06-01T03:08:35.058Z,15.93
2023-06-01T03:09:35.110Z,15.33
2023-06-01T03:10:35.171Z,15.86
2023-06-01T03:11:35.236Z,15.68
2023-06-01T03:12:35.302Z,15.11
2023-06-01T03:13:35.364Z,15.87
2023-06-01T03:14:35.439Z,16.09
2023-06-01T03:15:35.553Z,16.63
2023-06-01T03:16:35.555Z,15.91
2023-06-01T03:17:35.656Z,15.53
2023-06-01T03:18:38.077Z,14.68
2023-06-01T03:19:35.695Z,15.71
2023-06-01T03:20:35.678Z,15.87
2023-06-01T03:21:35.696Z,15.43
2023-06-01T03:22:35.666Z,15.56
2023-06-01T03:23:35.655Z,15.64
2023-06-01T03:24:35.658Z,15.64
2023-06-01T03:25:35.636Z,16.10
2023-06-01T03:26:35.631Z,16.14
2023-06-01T03:27:35.623Z,14.54
2023-06-01T03:28:35.620Z,14.86
2023-06-01T03:29:35.616Z,15.68
2023-06-01T03:30:35.600Z,16.65
2023-06-01T03:31:36.263Z,15.04
2023-06-01T03:32:35.605Z,15.64
2023-06-01T03:33:35.585Z,14.38
2023-06-01T03:34:35.574Z,15.39
2023-06-01T03:35:35.563Z,15.13
2023-06-01T03:36:35.559Z,14.72
2023-06-01T03:37:35.605Z,15.12
2023-06-01T03:38:35.673Z,15.37
2023-06-01T03:39:35.727Z,14.52
2023-06-01T03:40:35.784Z,16.12
2023-06-01T03:41:35.850Z,14.79
2023-06-01T03:42:35.911Z,15.21
2023-06-01T03:43:35.969Z,15.47
2023-06-01T03:44:36.055Z,15.33
2023-06-01T03:45:36.109Z,15.57
2023-06-01T03:46:36.272Z,15.19
2023-06-01T03:47:36.240Z,14.50
2023-06-01T03:48:36.297Z,15.34
2023-06-01T03:49:36.353Z,15.27
2023-06-01T03:50:36.412Z,14.34
2023-06-01T03:51:36.483Z,14.86
2023-06-01T03:52:36.560Z,15.02
2023-06-01T03:53:36.611Z,14.24
2023-06-01T03:54:36.687Z,15.19
2023-06-01T03:55:36.742Z,14.41
2023-06-01T03:56:36.815Z,16.05
2023-06-01T03:57:36.875Z,14.81
2023-06-01T03:58:36.951Z,16.25
2023-06-01T03:59:36.993Z,15.11
2023-06-01T04:00:37.055Z,14.22
2023-06-01T04:01:38.232Z,14.28
2023-06-01T04:02:37.261Z,15.83
2023-06-01T04:03:37.223Z,15.94
2023-06-01T04:04:37.287Z,15.52
2023-06-01T04:05:37.069Z,14.83
2023-06-01T04:06:37.064Z,15.50
2023-06-01T04:07:37.056Z,15.35
2023-06-01T04:08:37.056Z,14.93
2023-06-01T04:09:37.054Z,14.91
2023-06-01T04:10:37.050Z,14.87
2023-06-01T04:11:37.029Z,14.88
2023-06-01T04:12:37.034Z,15.04
2023-06-01T04:13:37.022Z,15.22
2023-06-01T04:14:37.015Z,14.24
2023-06-01T04:15:37.009Z,14.94
2023-06-01T04:16:37.044Z,14.94
2023-06-01T04:17:37.022Z,14.78
2023-06-01T04:18:36.985Z,14.16
2023-06-01T04:19:37.006Z,13.65
2023-06-01T04:20:36.973Z,15.09
2023-06-01T04:21:36.975Z,14.35
2023-06-01T04:22:36.992Z,15.20
2023-06-01T04:23:37.053Z,14.53
2023-06-01T04:24:37.115Z,13.80
2023-06-01T04:25:37.173Z,15.00
2023-06-01T04:26:37.254Z,14.72
2023-06-01T04:27:37.274Z,14.79
2023-06-01T04:28:37.332Z,13.67
2023-06-01T04:29:38.279Z,14.79
2023-06-01T04:30:37.448Z,15.29
2023-06-01T04:31:37.562Z,14.87
2023-06-01T04:32:37.626Z,13.72
2023-06-01T04:33:37.632Z,15.15
2023-06-01T04:34:37.699Z,15.71
2023-06-01T04:35:37.825Z,14.49
2023-06-01T04:36:37.821Z,15.58
2023-06-01T04:37:37.913Z,15.27
2023-06-01T04:38:37.935Z,14.79
2023-06-01T04:39:38.001Z,14.11
2023-06-01T04:40:38.074Z,14.63
2023-06-01T04:41:38.111Z,14.26
2023-06-01T04:42:38.167Z,14.06
2023-06-01T04:43:38.236Z,15.41
2023-06-01T04:44:38.309Z,13.99
2023-06-01T04:45:38.381Z,14.51
2023-06-01T04:46:38.500Z,14.02
2023-06-01T04:47:38.580Z,14.69
2023-06-01T04:48:38.574Z,14.90
2023-06-01T04:49:39.987Z,14.32
2023-06-01T04:50:38.659Z,14.34
2023-06-01T04:51:38.621Z,14.35
2023-06-01T04:52:38.646Z,14.66
2023-06-01T04:53:38.616Z,14.44
2023-06-01T04:54:38.623Z,14.02
2023-06-01T04:55:38.603Z,14.26
2023-06-01T04:56:38.598Z,13.74
2023-06-01T04:57:38.586Z,15.06
2023-06-01T04:58:38.589Z,14.24
2023-06-01T04:59:38.580Z,14.48
2023-06-01T05:00:38.574Z,14.42
2023-06-01T05:01:38.601Z,15.00
2023-06-01T05:02:38.605Z,15.04
2023-06-01T05:03:38.632Z,15.01
2023-06-01T05:04:38.555Z,14.27
2023-06-01T05:05:41.250Z,14.72
2023-06-01T05:06:38.531Z,15.59
2023-06-01T05:07:38.536Z,13.83
2023-06-01T05:08:38.539Z,14.67
2023-06-01T05:09:38.525Z,13.87
2023-06-01T05:10:38.509Z,14.17
2023-06-01T05:11:38.517Z,13.97
2023-06-01T05:12:38.492Z,13.26
2023-06-01T05:13:38.494Z,14.20
2023-06-01T05:14:38.506Z,13.09
2023-06-01T05:15:38.484Z,15.26
2023-06-01T05:16:38.531Z,13.77
2023-06-01T05:17:38.463Z,14.86
2023-06-01T05:18:38.459Z,14.27
2023-06-01T05:19:38.455Z,14.63
2023-06-01T05:20:38.478Z,14.13
2023-06-01T05:21:38.504Z,14.37
2023-06-01T05:22:38.500Z,14.65
2023-06-01T05:23:38.425Z,12.76
2023-06-01T05:24:38.417Z,14.89
2023-06-01T05:25:38.426Z,13.29
2023-06-01T05:26:38.412Z,14.53
2023-06-01T05:27:38.398Z,15.42
2023-06-01T05:28:38.404Z,14.39
2023-06-01T05:29:38.416Z,14.04
2023-06-01T05:30:38.460Z,14.45
2023-06-01T05:31:38.548Z,14.91
2023-06-01T05:32:38.609Z,14.43
2023-06-01T05:33:38.628Z,14.37
2023-06-01T05:34:38.703Z,14.00
2023-06-01T05:35:38.756Z,13.25
2023-06-01T05:36:38.890Z,14.20
2023-06-01T05:37:38.862Z,14.71
2023-06-01T05:38:38.959Z,13.64
2023-06-01T05:39:38.999Z,14.52
2023-06-01T05:40:39.052Z,13.92
2023-06-01T05:41:39.122Z,13.88
2023-06-01T05:42:39.203Z,13.75
2023-06-01T05:43:42.508Z,14.25
2023-06-01T05:44:40.275Z,13.91
2023-06-01T05:45:40.245Z,14.58
2023-06-01T05:46:39.223Z,13.88
2023-06-01T05:47:39.252Z,14.81
2023-06-01T05:48:41.284Z,14.52
2023-06-01T05:49:39.209Z,13.87
2023-06-01T05:50:39.209Z,13.53
2023-06-01T05:51:40.237Z,14.43
2023-06-01T05:52:39.182Z,14.23
2023-06-01T05:53:39.656Z,14.69
2023-06-01T05:54:39.205Z,14.69
2023-06-01T05:55:39.708Z,13.49
2023-06-01T05:57:46.541Z,13.13
2023-06-01T05:58:41.217Z,14.64
2023-06-01T06:00:55.274Z,14.36
2023-06-01T06:01:39.174Z,13.73
2023-06-01T06:02:54.866Z,14.01
2023-06-01T06:04:11.193Z,13.91
2023-06-01T06:04:46.521Z,14.47
2023-06-01T06:05:39.603Z,14.29
2023-06-01T06:07:42.769Z,14.68
2023-06-01T06:09:46.805Z,14.43
2023-06-01T06:10:39.342Z,13.24
2023-06-01T06:11:39.416Z,14.25
2023-06-01T06:12:40.476Z,12.73
2023-06-01T06:13:45.738Z,13.26
2023-06-01T06:14:40.943Z,14.84
2023-06-01T06:15:39.362Z,13.44
2023-06-01T06:16:40.166Z,14.50
2023-06-01T06:17:54.695Z,13.44
2023-06-01T06:18:40.322Z,14.63
2023-06-01T06:19:42.777Z,14.84
2023-06-01T06:20:39.362Z,13.17
2023-06-01T06:21:39.560Z,13.03
2023-06-01T06:22:39.193Z,13.54
2023-06-01T06:23:55.126Z,13.69
2023-06-01T06:24:40.413Z,13.51
2023-06-01T06:25:39.156Z,13.52
2023-06-01T06:26:39.203Z,13.53
2023-06-01T06:27:39.393Z,13.79
2023-06-01T06:28:39.636Z,13.71
2023-06-01T06:29:39.472Z,12.44
2023-06-01T06:30:39.278Z,13.99
2023-06-01T06:31:46.971Z,13.68
2023-06-01T06:32:39.461Z,13.92
2023-06-01T06:33:39.497Z,13.40
2023-06-01T06:34:39.508Z,13.57
2023-06-01T06:35:39.666Z,13.66
2023-06-01T06:36:39.553Z,14.07
2023-06-01T06:37:39.526Z,14.03
2023-06-01T06:38:39.809Z,14.86
2023-06-01T06:39:39.600Z,14.06
2023-06-01T06:40:39.667Z,13.66
2023-06-01T06:41:39.386Z,13.77
2023-06-01T06:42:39.277Z,12.87
2023-06-01T06:43:46.804Z,13.40
2023-06-01T06:44:54.950Z,13.09
2023-06-01T06:45:42.408Z,13.25
2023-06-01T06:46:39.363Z,14.81
2023-06-01T06:47:54.879Z,13.40
2023-06-01T06:48:39.500Z,13.38
2023-06-01T06:50:42.706Z,13.13
2023-06-01T06:52:42.483Z,13.16
2023-06-01T06:53:47.062Z,13.52
2023-06-01T06:54:42.548Z,13.67
2023-06-01T06:55:39.366Z,13.28
2023-06-01T06:57:42.447Z,13.59
2023-06-01T06:58:39.468Z,13.85
2023-06-01T06:59:39.302Z,12.43
2023-06-01T07:00:39.048Z,14.05
2023-06-01T07:01:54.852Z,13.61
2023-06-01T07:02:39.288Z,13.83
2023-06-01T07:03:39.516Z,13.46
2023-06-01T07:04:39.184Z,13.15
2023-06-01T07:05:39.569Z,12.83
2023-06-01T07:06:39.181Z,13.07
2023-06-01T07:07:39.358Z,13.22
2023-06-01T07:09:39.179Z,12.66
2023-06-01T07:10:39.266Z,13.78
2023-06-01T07:11:39.186Z,12.68
2023-06-01T07:12:39.178Z,12.23
2023-06-01T07:13:39.637Z,14.54
2023-06-01T07:14:39.007Z,12.91
2023-06-01T07:15:39.014Z,13.25
2023-06-01T07:16:39.169Z,13.27
2023-06-01T07:17:39.205Z,12.98
2023-06-01T07:18:39.603Z,13.78
2023-06-01T07:19:42.412Z,13.64
2023-06-01T07:20:39.229Z,12.99
2023-06-01T07:21:39.132Z,13.55
2023-06-01T07:22:39.170Z,13.10
2023-06-01T07:23:39.847Z,13.58
2023-06-01T07:24:38.886Z,13.04
2023-06-01T07:25:38.863Z,13.41
2023-06-01T07:26:39.847Z,13.90
2023-06-01T07:28:38.848Z,13.07
2023-06-01T07:29:46.238Z,12.65
2023-06-01T07:30:38.862Z,13.20
2023-06-01T07:31:38.841Z,13.00
2023-06-01T07:32:39.240Z,13.32
2023-06-01T07:33:38.916Z,12.76
2023-06-01T07:34:38.803Z,13.29
2023-06-01T07:35:38.799Z,13.91
2023-06-01T07:36:39.792Z,12.83
2023-06-01T07:37:38.859Z,13.25
2023-06-01T07:38:42.147Z,14.10
2023-06-01T07:39:38.769Z,12.66
2023-06-01T07:40:38.770Z,13.06
2023-06-01T07:41:38.752Z,13.99
2023-06-01T07:42:38.866Z,11.98
2023-06-01T07:43:38.855Z,12.29
2023-06-01T07:44:38.732Z,13.42
2023-06-01T07:45:38.734Z,13.05
2023-06-01T07:46:39.934Z,13.03
2023-06-01T07:47:39.865Z,12.86
2023-06-01T07:48:38.852Z,13.05
2023-06-01T07:49:38.694Z,13.11
2023-06-01T07:50:38.698Z,12.95
2023-06-01T07:51:38.679Z,12.39
2023-06-01T07:52:38.675Z,12.58
2023-06-01T07:53:38.857Z,13.17
2023-06-01T07:54:38.688Z,13.53
2023-06-01T07:55:38.874Z,13.16
2023-06-01T07:56:38.665Z,13.84
2023-06-01T07:57:38.661Z,12.53
2023-06-01T07:58:46.252Z,13.49
2023-06-01T07:59:38.663Z,12.45
2023-06-01T08:00:38.644Z,13.21
2023-06-01T08:01:41.833Z,12.10
2023-06-01T08:03:11.019Z,13.21
2023-06-01T08:03:38.862Z,12.99
2023-06-01T08:04:38.623Z,13.51
2023-06-01T08:05:41.870Z,12.18
2023-06-01T08:06:38.858Z,12.78
2023-06-01T08:07:38.590Z,12.95
2023-06-01T08:08:38.860Z,14.33
2023-06-01T08:09:38.898Z,12.99
2023-06-01T08:10:38.580Z,11.86
2023-06-01T08:11:38.859Z,12.73
2023-06-01T08:12:38.565Z,13.26
2023-06-01T08:13:38.568Z,11.67
2023-06-01T08:14:38.557Z,12.50
2023-06-01T08:15:38.548Z,13.59
2023-06-01T08:16:46.286Z,13.19
2023-06-01T08:17:38.653Z,12.36
2023-06-01T08:18:38.532Z,12.49
2023-06-01T08:19:38.526Z,13.08
2023-06-01T08:20:38.552Z,11.25
2023-06-01T08:21:38.944Z,12.48
2023-06-01T08:22:38.502Z,12.84
2023-06-01T08:23:38.494Z,12.62
2023-06-01T08:24:38.528Z,12.58
2023-06-01T08:25:38.484Z,12.08
2023-06-01T08:26:38.874Z,12.45
2023-06-01T08:27:38.485Z,11.19
2023-06-01T08:28:38.456Z,12.21
2023-06-01T08:29:42.801Z,12.31
2023-06-01T08:30:38.451Z,12.20
2023-06-01T08:31:38.932Z,12.74
2023-06-01T08:32:38.452Z,12.81
2023-06-01T08:33:38.427Z,13.04
2023-06-01T08:34:38.436Z,11.89
2023-06-01T08:36:37.882Z,11.76
2023-06-01T08:37:38.407Z,12.52
2023-06-01T08:38:38.386Z,12.38
2023-06-01T08:39:38.383Z,12.83
2023-06-01T08:40:41.588Z,12.66
2023-06-01T08:41:38.383Z,11.57
2023-06-01T08:42:38.369Z,11.50
2023-06-01T08:43:38.404Z,12.71
2023-06-01T08:44:38.351Z,12.63
2023-06-01T08:46:10.133Z,12.19
2023-06-01T08:46:38.419Z,12.12
2023-06-01T08:47:38.377Z,11.48
2023-06-01T08:48:38.324Z,12.81
2023-06-01T08:49:38.319Z,12.15
2023-06-01T08:50:38.306Z,11.73
2023-06-01T08:51:38.377Z,12.46
2023-06-01T08:52:38.287Z,12.30
2023-06-01T08:53:38.377Z,12.19
2023-06-01T08:54:39.274Z,11.72
2023-06-01T08:55:38.269Z,11.84
2023-06-01T08:56:38.258Z,11.01
2023-06-01T08:57:41.451Z,11.82
2023-06-01T08:58:38.260Z,11.76
2023-06-01T08:59:38.232Z,11.53
2023-06-01T09:00:38.243Z,11.75
2023-06-01T09:01:38.282Z,12.16
2023-06-01T09:02:38.242Z,12.22
2023-06-01T09:03:38.271Z,11.68
2023-06-01T09:04:38.194Z,12.61
2023-06-01T09:05:38.192Z,11.79
2023-06-01T09:06:38.179Z,11.83
2023-06-01T09:07:38.177Z,12.29
2023-06-01T09:08:38.222Z,11.56
2023-06-01T09:09:38.273Z,11.66
2023-06-01T09:10:38.160Z,11.86
2023-06-01T09:11:38.151Z,11.11
2023-06-01T09:12:38.150Z,12.08
2023-06-01T09:13:38.389Z,13.33
2023-06-01T09:14:38.150Z,12.51
2023-06-01T09:15:38.122Z,11.15
2023-06-01T09:16:38.224Z,12.04
2023-06-01T09:17:38.386Z,10.72
2023-06-01T09:18:38.390Z,11.73
2023-06-01T09:19:38.107Z,11.81
2023-06-01T09:20:38.098Z,11.85
2023-06-01T09:21:38.125Z,11.73
2023-06-01T09:22:38.120Z,10.89
2023-06-01T09:23:38.392Z,10.91
2023-06-01T09:24:38.391Z,11.59
2023-06-01T09:25:38.196Z,12.00
2023-06-01T09:26:38.249Z,11.46
2023-06-01T09:27:38.266Z,11.78
2023-06-01T09:28:38.399Z,11.17
2023-06-01T09:29:41.595Z,11.04
2023-06-01T09:30:38.343Z,10.78
2023-06-01T09:31:45.743Z,11.15
2023-06-01T09:32:38.346Z,11.28
2023-06-01T09:33:38.315Z,12.42
2023-06-01T09:34:38.495Z,11.91
2023-06-01T09:35:45.738Z,10.81
2023-06-01T09:36:41.616Z,11.50
2023-06-01T09:37:42.532Z,10.91
2023-06-01T09:38:38.279Z,12.47
2023-06-01T09:39:41.478Z,12.26
2023-06-01T09:40:38.563Z,11.76
2023-06-01T09:41:38.422Z,11.31
2023-06-01T09:42:38.266Z,11.47
2023-06-01T09:43:38.405Z,10.81
2023-06-01T09:44:38.286Z,11.29
2023-06-01T09:45:38.234Z,11.69
2023-06-01T09:46:38.275Z,11.24
2023-06-01T09:47:38.261Z,12.06
2023-06-01T09:48:38.627Z,11.71
2023-06-01T09:49:46.687Z,11.39
2023-06-01T09:50:38.203Z,12.25
2023-06-01T09:51:38.189Z,11.93
2023-06-01T09:52:45.666Z,11.38
2023-06-01T09:53:38.207Z,11.27
2023-06-01T09:54:38.170Z,11.62
2023-06-01T09:55:41.379Z,11.38
2023-06-01T09:56:38.164Z,12.15
2023-06-01T09:57:38.174Z,11.89
2023-06-01T09:58:41.330Z,11.32
2023-06-01T09:59:38.407Z,11.50
2023-06-01T10:00:38.272Z,10.87
2023-06-01T10:01:38.157Z,10.78
2023-06-01T10:02:38.210Z,11.09
2023-06-01T10:03:38.270Z,11.17
2023-06-01T10:04:38.098Z,11.81
2023-06-01T10:05:38.100Z,10.24
2023-06-01T10:06:38.104Z,10.81
2023-06-01T10:07:38.141Z,12.04
2023-06-01T10:08:38.410Z,11.91
2023-06-01T10:09:38.402Z,11.26
2023-06-01T10:10:38.278Z,10.58
2023-06-01T10:11:38.345Z,11.07
2023-06-01T10:12:45.732Z,11.17
2023-06-01T10:13:38.373Z,11.11
2023-06-01T10:14:38.458Z,11.27
2023-06-01T10:15:38.351Z,10.93
2023-06-01T10:16:40.420Z,10.63
2023-06-01T10:17:39.438Z,11.04
2023-06-01T10:19:38.321Z,10.75
2023-06-01T10:20:38.370Z,11.26
2023-06-01T10:21:38.348Z,10.76
2023-06-01T10:22:38.309Z,10.12
2023-06-01T10:23:45.874Z,10.69
2023-06-01T10:24:38.293Z,11.13
2023-06-01T10:25:39.271Z,10.63
2023-06-01T10:26:38.300Z,10.93
2023-06-01T10:27:38.543Z,11.18
2023-06-01T10:28:38.441Z,10.94
2023-06-01T10:29:38.277Z,10.37
2023-06-01T10:30:38.243Z,10.25
2023-06-01T10:31:38.330Z,11.00
2023-06-01T10:32:38.368Z,10.83
2023-06-01T10:33:38.415Z,10.44
2023-06-01T10:34:38.237Z,10.88
2023-06-01T10:35:38.178Z,11.83
2023-06-01T10:36:38.418Z,10.54
2023-06-01T10:37:38.170Z,11.53
2023-06-01T10:38:38.163Z,11.64
2023-06-01T10:39:39.963Z,10.77
2023-06-01T10:40:38.156Z,11.36
2023-06-01T10:41:38.153Z,10.62
2023-06-01T10:42:38.204Z,11.15
2023-06-01T10:43:38.145Z,10.04
2023-06-01T10:44:38.422Z,11.24
2023-06-01T10:45:38.329Z,10.75
2023-06-01T10:46:40.227Z,10.95
2023-06-01T10:47:38.146Z,11.91
2023-06-01T10:48:38.090Z,10.59
2023-06-01T10:49:38.469Z,11.36
2023-06-01T10:50:38.079Z,10.92
2023-06-01T10:51:38.077Z,11.03
2023-06-01T10:52:38.064Z,9.85
2023-06-01T10:53:38.053Z,10.07
2023-06-01T10:54:38.076Z,11.40
2023-06-01T10:55:38.071Z,11.43
2023-06-01T10:56:38.043Z,10.92
2023-06-01T10:57:38.034Z,10.67
2023-06-01T10:58:38.027Z,11.31
2023-06-01T10:59:38.031Z,10.67
2023-06-01T11:00:38.056Z,10.82
2023-06-01T11:01:38.043Z,10.05
2023-06-01T11:02:38.008Z,10.94
2023-06-01T11:03:38.076Z,11.32
2023-06-01T11:04:38.576Z,10.64
2023-06-01T11:05:38.001Z,10.56
2023-06-01T11:06:38.466Z,10.66
2023-06-01T11:07:38.001Z,11.22
2023-06-01T11:08:38.453Z,10.69
2023-06-01T11:09:37.951Z,11.13
2023-06-01T11:10:37.942Z,10.87
2023-06-01T11:11:37.937Z,10.35
2023-06-01T11:12:37.926Z,10.55
2023-06-01T11:13:37.986Z,11.01
2023-06-01T11:14:37.946Z,10.74
2023-06-01T11:15:37.975Z,10.60
2023-06-01T11:16:37.997Z,11.03
2023-06-01T11:17:37.915Z,11.02
2023-06-01T11:18:37.954Z,10.56
2023-06-01T11:19:37.895Z,10.69
2023-06-01T11:20:37.921Z,10.03
2023-06-01T11:21:37.989Z,10.68
2023-06-01T11:22:38.093Z,9.83
2023-06-01T11:23:37.859Z,10.82
2023-06-01T11:24:37.863Z,10.97
2023-06-01T11:25:37.835Z,11.20
2023-06-01T11:26:37.833Z,10.51
2023-06-01T11:27:37.825Z,11.37
2023-06-01T11:28:37.963Z,11.57
2023-06-01T11:29:37.802Z,11.34
2023-06-01T11:30:37.956Z,10.24
2023-06-01T11:31:37.822Z,11.38
2023-06-01T11:32:37.824Z,11.16
2023-06-01T11:33:37.771Z,10.53
2023-06-01T11:34:37.774Z,11.40
2023-06-01T11:35:37.957Z,11.56
2023-06-01T11:36:37.757Z,11.07
2023-06-01T11:37:37.742Z,11.23
2023-06-01T11:38:39.698Z,10.29
2023-06-01T11:39:37.727Z,10.47
2023-06-01T11:40:39.969Z,11.19
2023-06-01T11:41:37.811Z,10.41
2023-06-01T11:42:37.703Z,12.95
2023-06-01T11:43:37.967Z,13.01
2023-06-01T11:44:37.715Z,12.47
2023-06-01T11:45:37.945Z,13.29
2023-06-01T11:46:37.680Z,14.13
2023-06-01T11:47:37.676Z,10.80
2023-06-01T11:48:37.660Z,10.78
2023-06-01T11:49:37.653Z,12.70
2023-06-01T11:50:37.946Z,12.99
2023-06-01T11:51:37.639Z,12.72
2023-06-01T11:52:37.643Z,14.41
2023-06-01T11:53:37.623Z,14.14
2023-06-01T11:54:37.663Z,12.75
2023-06-01T11:55:37.610Z,14.25
2023-06-01T11:56:37.605Z,11.49
2023-06-01T11:57:37.613Z,13.46
2023-06-01T11:58:37.597Z,12.14
2023-06-01T11:59:37.958Z,12.80
2023-06-01T12:00:40.782Z,11.43
2023-06-01T12:01:37.561Z,11.90
2023-06-01T12:02:37.700Z,12.35
2023-06-01T12:03:37.586Z,11.54
2023-06-01T12:04:38.018Z,13.56
2023-06-01T12:05:37.532Z,12.88
2023-06-01T12:06:37.523Z,11.83
2023-06-01T12:07:37.519Z,13.28
2023-06-01T12:08:37.511Z,11.33
2023-06-01T12:09:37.513Z,13.85
2023-06-01T12:10:37.502Z,12.69
2023-06-01T12:11:37.489Z,12.27
2023-06-01T12:12:37.485Z,12.16
2023-06-01T12:13:37.467Z,12.50
2023-06-01T12:14:37.709Z,12.28
2023-06-01T12:15:37.457Z,10.93
2023-06-01T12:16:37.465Z,11.57
2023-06-01T12:17:37.559Z,12.45
2023-06-01T12:18:37.644Z,12.36
2023-06-01T12:19:37.464Z,11.27
2023-06-01T12:20:37.423Z,11.73
2023-06-01T12:21:37.438Z,11.63
2023-06-01T12:22:37.409Z,11.16
2023-06-01T12:23:37.401Z,12.47
2023-06-01T12:24:37.464Z,12.23
2023-06-01T12:25:37.447Z,13.16
2023-06-01T12:26:37.377Z,12.02
2023-06-01T12:27:37.379Z,12.25
2023-06-01T12:28:37.365Z,12.79
2023-06-01T12:29:37.364Z,12.92
2023-06-01T12:30:37.364Z,13.96
2023-06-01T12:31:37.463Z,13.76
2023-06-01T12:32:37.393Z,12.95
2023-06-01T12:33:37.361Z,13.72
2023-06-01T12:34:37.474Z,15.43
2023-06-01T12:35:37.316Z,13.81
2023-06-01T12:36:37.316Z,15.81
2023-06-01T12:37:37.302Z,11.81
2023-06-01T12:38:37.326Z,13.16
2023-06-01T12:39:37.278Z,13.37
2023-06-01T12:40:37.480Z,13.90
2023-06-01T12:41:37.267Z,13.83
2023-06-01T12:42:37.263Z,13.48
2023-06-01T12:43:37.268Z,15.11
2023-06-01T12:44:38.717Z,13.74
2023-06-01T12:45:37.414Z,13.70
2023-06-01T12:46:37.419Z,12.28
2023-06-01T12:47:37.446Z,14.69
2023-06-01T12:48:37.434Z,12.40
2023-06-01T12:49:37.467Z,12.82
2023-06-01T12:50:38.006Z,11.05
2023-06-01T12:51:37.432Z,11.88
2023-06-01T12:52:37.428Z,11.07
2023-06-01T12:53:37.705Z,11.71
2023-06-01T12:54:37.473Z,11.76
2023-06-01T12:55:37.452Z,10.79
2023-06-01T12:56:37.449Z,11.26
2023-06-01T12:57:37.450Z,12.72
2023-06-01T12:58:37.982Z,12.67
2023-06-01T12:59:37.465Z,11.72
2023-06-01T13:00:56.345Z,12.92
2023-06-01T13:01:37.776Z,11.72
2023-06-01T13:02:37.770Z,12.23
2023-06-01T13:03:38.089Z,12.09